Time;durP1;ratioP1;P1;durP2;ratioP2;P2;SDS_P1;SDS_P2;PMS_P1;PMS_P2;Temp;Humidity;BMP_temperature;BMP_pressure;BME280_temperature;BME280_humidity;BME280_pressure;Samples;Min_cycle;Max_cycle;Signal;HPM_P1;HPM_P2
2024/01/14 00:00:46;;;;;;;37.80;35.27;;;;;;;;;;4104451;28;20041;-60
2024/01/14 00:02:48;;;;;;;39.17;36.95;;;;;;;;;;4114518;28;20055;-60
2024/01/14 00:04:50;;;;;;;40.07;37.47;;;;;;;;;;4115852;28;20126;-60
2024/01/14 00:06:52;;;;;;;38.37;36.17;;;;;;;;;;4115750;28;20165;-60
2024/01/14 00:08:53;;;;;;;40.00;37.80;;;;;;;;;;4115460;28;20046;-61
2024/01/14 00:10:55;;;;;;;41.47;39.13;;;;;;;;;;4115663;28;20042;-62
2024/01/14 00:12:57;;;;;;;37.78;35.92;;;;;;;;;;4115781;28;20701;-62
2024/01/14 00:14:59;;;;;;;37.95;35.65;;;;;;;;;;4115309;28;20047;-62
2024/01/14 00:17:07;;;;;;;38.25;36.45;;;;;;;;;;4115672;28;20118;-62
2024/01/14 00:19:09;;;;;;;39.95;37.08;;;;;;;;;;4115323;28;20038;-62
2024/01/14 00:21:11;;;;;;;;;;;;;;;;;;4104713;28;20038;-62
2024/01/14 00:23:13;;;;;;;40.55;38.53;;;;;;;;;;4115791;28;19932;-62
2024/01/14 00:25:15;;;;;;;36.00;33.90;;;;;;;;;;4115720;28;20042;-62
2024/01/14 00:27:17;;;;;;;36.63;34.83;;;;;;;;;;4115461;28;20294;-62
2024/01/14 00:29:19;;;;;;;37.65;35.53;;;;;;;;;;4115657;28;20121;-62
2024/01/14 00:31:21;;;;;;;40.13;37.97;;;;;;;;;;4115565;28;20442;-62
2024/01/14 00:33:23;;;;;;;38.57;36.50;;;;;;;;;;4122029;28;20121;-62
2024/01/14 00:35:26;;;;;;;36.08;34.10;;;;;;;;;;4131409;28;20617;-62
2024/01/14 00:37:27;;;;;;;40.38;38.05;;;;;;;;;;4131535;28;20093;-62
2024/01/14 00:39:29;;;;;;;38.50;35.88;;;;;;;;;;4131635;28;20039;-62
2024/01/14 00:41:31;;;;;;;40.80;38.35;;;;;;;;;;4131577;28;20046;-62
2024/01/14 00:43:33;;;;;;;38.20;36.30;;;;;;;;;;4131574;28;20046;-62
2024/01/14 00:45:34;;;;;;;39.90;37.53;;;;;;;;;;4131590;28;20093;-62
2024/01/14 00:47:36;;;;;;;36.45;34.22;;;;;;;;;;4129806;28;20145;-62
2024/01/14 00:49:38;;;;;;;37.17;35.08;;;;;;;;;;4131460;28;20081;-62
2024/01/14 00:51:40;;;;;;;38.13;36.25;;;;;;;;;;4131266;28;20137;-62
2024/01/14 00:53:42;;;;;;;39.38;37.38;;;;;;;;;;4131257;28;20050;-62
2024/01/14 00:55:43;;;;;;;39.15;36.95;;;;;;;;;;4131545;28;20042;-62
2024/01/14 00:57:47;;;;;;;39.90;37.83;;;;;;;;;;4131471;28;20043;-62
2024/01/14 00:59:48;;;;;;;41.30;39.45;;;;;;;;;;4133754;28;20069;-62
2024/01/14 01:01:50;;;;;;;36.50;34.70;;;;;;;;;;4114594;28;20138;-62
2024/01/14 01:03:53;;;;;;;40.00;37.80;;;;;;;;;;4118217;28;20384;-62
2024/01/14 01:05:54;;;;;;;36.28;34.40;;;;;;;;;;4118534;28;20065;-62
2024/01/14 01:07:58;;;;;;;36.80;35.00;;;;;;;;;;4118585;28;20047;-62
2024/01/14 01:10:00;;;;;;;36.13;34.17;;;;;;;;;;4118183;28;20050;-61
2024/01/14 01:12:02;;;;;;;36.60;34.58;;;;;;;;;;4118318;28;20121;-62
2024/01/14 01:14:04;;;;;;;37.42;35.15;;;;;;;;;;4118207;28;20043;-62
2024/01/14 01:16:06;;;;;;;37.47;35.57;;;;;;;;;;4118387;28;20043;-62
2024/01/14 01:18:07;;;;;;;38.33;36.10;;;;;;;;;;4101208;28;20287;-62
2024/01/14 01:20:10;;;;;;;35.03;33.38;;;;;;;;;;4118333;28;20289;-60
2024/01/14 01:22:12;;;;;;;36.20;34.40;;;;;;;;;;4116778;28;20039;-61
2024/01/14 01:24:14;;;;;;;39.03;36.83;;;;;;;;;;4117841;28;20035;-62
2024/01/14 01:26:16;;;;;;;37.20;35.33;;;;;;;;;;4117255;28;20419;-62
2024/01/14 01:28:18;;;;;;;37.60;35.60;;;;;;;;;;4117792;28;20106;-61
2024/01/14 01:30:22;;;;;;;37.33;35.33;;;;;;;;;;4117731;28;20086;-61
2024/01/14 01:32:24;;;;;;;38.80;36.90;;;;;;;;;;4117709;28;20298;-61
2024/01/14 01:34:26;;;;;;;39.78;37.75;;;;;;;;;;4133006;28;20043;-61
2024/01/14 01:36:28;;;;;;;38.33;36.20;;;;;;;;;;4134076;28;20394;-61
2024/01/14 01:38:30;;;;;;;36.85;35.00;;;;;;;;;;4134013;28;20038;-61
2024/01/14 01:40:31;;;;;;;35.95;34.08;;;;;;;;;;4133914;28;20038;-61
2024/01/14 01:42:34;;;;;;;32.55;30.88;;;;;;;;;;4133275;28;20418;-61
2024/01/14 01:44:36;;;;;;;38.88;36.75;;;;;;;;;;4134080;28;20046;-61
2024/01/14 01:46:38;;;;;;;37.22;35.42;;;;;;;;;;4133449;28;20042;-61
2024/01/14 01:48:40;;;;;;;37.45;35.38;;;;;;;;;;4133885;28;20487;-61
2024/01/14 01:50:42;;;;;;;38.47;36.40;;;;;;;;;;4133976;28;20485;-61
2024/01/14 01:52:44;;;;;;;38.88;36.78;;;;;;;;;;4132306;28;20054;-61
2024/01/14 01:54:48;;;;;;;38.93;36.63;;;;;;;;;;4100369;28;20083;-62
2024/01/14 01:56:50;;;;;;;41.55;39.47;;;;;;;;;;4133929;28;20320;-61
2024/01/14 01:58:55;;;;;;;;;;;;;;;;;;4134219;28;20034;-61
2024/01/14 02:00:59;;;;;;;36.80;34.90;;;;;;;;;;4133719;28;19968;-62
2024/01/14 02:03:06;;;;;;;37.35;35.35;;;;;;;;;;4123172;28;20158;-61
2024/01/14 02:05:08;;;;;;;35.90;34.00;;;;;;;;;;4099502;28;20091;-57
2024/01/14 02:07:10;;;;;;;37.22;35.08;;;;;;;;;;4091036;29;20494;-56
2024/01/14 02:09:12;;;;;;;37.80;35.90;;;;;;;;;;4087154;29;20074;-57
2024/01/14 02:11:13;;;;;;;38.15;36.22;;;;;;;;;;4089889;29;20040;-57
2024/01/14 02:13:15;;;;;;;41.50;39.20;;;;;;;;;;4085359;29;20046;-57
2024/01/14 02:15:17;;;;;;;41.87;39.73;;;;;;;;;;4085720;29;20140;-57
2024/01/14 02:17:18;;;;;;;38.60;36.73;;;;;;;;;;4085627;29;20379;-57
2024/01/14 02:19:20;;;;;;;41.20;38.90;;;;;;;;;;4097743;29;20298;-56
2024/01/14 02:21:23;;;;;;;38.20;36.00;;;;;;;;;;4101036;29;20041;-57
2024/01/14 02:23:26;;;;;;;39.03;37.00;;;;;;;;;;4101176;29;20130;-56
2024/01/14 02:25:28;;;;;;;39.95;37.80;;;;;;;;;;4101091;29;20081;-56
2024/01/14 02:27:31;;;;;;;41.65;39.17;;;;;;;;;;4101220;29;20051;-57
2024/01/14 02:29:37;;;;;;;37.97;35.67;;;;;;;;;;4101162;29;20055;-57
2024/01/14 02:31:39;;;;;;;40.35;37.70;;;;;;;;;;4101196;29;20043;-57
2024/01/14 02:33:41;;;;;;;41.53;39.05;;;;;;;;;;4092161;29;20118;-57
2024/01/14 02:35:43;;;;;;;40.83;38.53;;;;;;;;;;4085452;29;20047;-57
2024/01/14 02:37:44;;;;;;;42.28;40.30;;;;;;;;;;4085405;29;20288;-57
2024/01/14 02:39:46;;;;;;;38.65;36.72;;;;;;;;;;4085234;29;20110;-56
2024/01/14 02:41:47;;;;;;;40.90;38.70;;;;;;;;;;4068104;29;20146;-57
2024/01/14 02:43:49;;;;;;;39.63;37.07;;;;;;;;;;4085067;29;20122;-56
2024/01/14 02:45:52;;;;;;;40.30;38.42;;;;;;;;;;4085104;29;20039;-56
2024/01/14 02:47:53;;;;;;;38.65;36.13;;;;;;;;;;4068327;29;20064;-56
2024/01/14 02:49:55;;;;;;;37.95;36.22;;;;;;;;;;4084992;29;20460;-57
2024/01/14 02:51:57;;;;;;;40.30;37.92;;;;;;;;;;4084846;29;20044;-56
2024/01/14 02:54:01;;;;;;;40.23;38.07;;;;;;;;;;4085038;29;20053;-56
2024/01/14 02:56:03;;;;;;;42.38;39.90;;;;;;;;;;4084763;29;20039;-57
2024/01/14 02:58:04;;;;;;;40.92;38.65;;;;;;;;;;4084864;29;20048;-56
2024/01/14 03:00:06;;;;;;;40.35;38.45;;;;;;;;;;4084694;29;20090;-57
2024/01/14 03:02:08;;;;;;;38.30;36.40;;;;;;;;;;4084488;29;20036;-56
2024/01/14 03:04:10;;;;;;;39.72;37.75;;;;;;;;;;4093921;28;20574;-57
2024/01/14 03:06:12;;;;;;;39.20;37.17;;;;;;;;;;4083825;29;20047;-57
2024/01/14 03:08:14;;;;;;;39.55;37.65;;;;;;;;;;4099912;29;20055;-56
2024/01/14 03:10:15;;;;;;;38.97;36.92;;;;;;;;;;4104084;28;20058;-56
2024/01/14 03:12:17;;;;;;;42.92;40.88;;;;;;;;;;4100519;28;20058;-61
2024/01/14 03:14:19;;;;;;;42.70;40.70;;;;;;;;;;4100301;29;20120;-60
2024/01/14 03:16:21;;;;;;;44.78;42.10;;;;;;;;;;4100413;29;20071;-59
2024/01/14 03:18:23;;;;;;;41.10;39.10;;;;;;;;;;4107487;28;20035;-61
2024/01/14 03:20:25;;;;;;;40.67;38.38;;;;;;;;;;4114822;28;20233;-58
2024/01/14 03:22:26;;;;;;;39.50;36.97;;;;;;;;;;4098624;28;20043;-59
2024/01/14 03:24:28;;;;;;;41.55;39.42;;;;;;;;;;4098653;29;20507;-60
2024/01/14 03:26:29;;;;;;;40.27;38.03;;;;;;;;;;4099189;29;20043;-60
2024/01/14 03:28:31;;;;;;;41.17;39.17;;;;;;;;;;4103976;28;20435;-60
2024/01/14 03:30:32;;;;;;;40.33;38.08;;;;;;;;;;4114523;28;20050;-59
2024/01/14 03:32:35;;;;;;;42.23;40.03;;;;;;;;;;4114647;28;20066;-58
2024/01/14 03:34:37;;;;;;;40.17;38.38;;;;;;;;;;4098451;29;20290;-59
2024/01/14 03:36:39;;;;;;;45.92;43.50;;;;;;;;;;4099460;29;20040;-61
2024/01/14 03:38:41;;;;;;;42.78;40.03;;;;;;;;;;4100082;29;20460;-60
2024/01/14 03:40:42;;;;;;;40.87;38.43;;;;;;;;;;4100052;29;20043;-60
2024/01/14 03:42:44;;;;;;;42.72;40.47;;;;;;;;;;4099910;29;20567;-60
2024/01/14 03:44:45;;;;;;;41.50;39.08;;;;;;;;;;4099926;29;20122;-60
2024/01/14 03:46:47;;;;;;;38.00;35.80;;;;;;;;;;4099933;29;20073;-60
2024/01/14 03:48:48;;;;;;;41.73;39.17;;;;;;;;;;4099945;29;20039;-60
2024/01/14 03:50:50;;;;;;;42.13;40.05;;;;;;;;;;4099814;29;20078;-60
2024/01/14 03:52:52;;;;;;;38.85;36.75;;;;;;;;;;4099823;29;20522;-61
2024/01/14 03:54:54;;;;;;;39.03;37.13;;;;;;;;;;4100023;29;20130;-61
2024/01/14 03:56:56;;;;;;;;;;;;;;;;;;4100060;29;20054;-59
2024/01/14 03:58:57;;;;;;;42.60;40.45;;;;;;;;;;4099667;29;19923;-59
2024/01/14 04:00:59;;;;;;;40.53;38.03;;;;;;;;;;4099239;28;20138;-60
2024/01/14 04:03:01;;;;;;;41.97;39.77;;;;;;;;;;4099575;29;20398;-60
2024/01/14 04:05:03;;;;;;;44.37;41.60;;;;;;;;;;4099528;29;20132;-60
2024/01/14 04:07:04;;;;;;;39.28;37.40;;;;;;;;;;4099572;29;20293;-60
2024/01/14 04:09:06;;;;;;;43.03;40.60;;;;;;;;;;4099581;29;20061;-60
2024/01/14 04:11:08;;;;;;;40.90;38.83;;;;;;;;;;4099572;29;20286;-60
2024/01/14 04:13:10;;;;;;;40.55;38.28;;;;;;;;;;4099483;29;20341;-60
2024/01/14 04:15:11;;;;;;;40.35;37.90;;;;;;;;;;4099581;29;20047;-60
2024/01/14 04:17:13;;;;;;;40.70;38.27;;;;;;;;;;4099404;29;20031;-60
2024/01/14 04:19:15;;;;;;;44.22;42.05;;;;;;;;;;4099520;29;20039;-60
2024/01/14 04:21:23;;;;;;;38.33;36.63;;;;;;;;;;4098423;29;20047;-59
2024/01/14 04:23:25;;;;;;;41.17;39.25;;;;;;;;;;4099476;29;20126;-60
2024/01/14 04:25:26;;;;;;;40.40;38.35;;;;;;;;;;4099517;29;20075;-59
2024/01/14 04:27:30;;;;;;;43.05;40.95;;;;;;;;;;4099442;29;20103;-61
2024/01/14 04:29:32;;;;;;;37.53;35.72;;;;;;;;;;4099093;29;20051;-61
2024/01/14 04:31:33;;;;;;;40.95;39.00;;;;;;;;;;4099394;29;20039;-60
2024/01/14 04:33:35;;;;;;;35.58;33.80;;;;;;;;;;4097999;28;20039;-60
2024/01/14 04:35:37;;;;;;;40.00;38.07;;;;;;;;;;4099394;29;20514;-61
2024/01/14 04:37:39;;;;;;;37.05;35.35;;;;;;;;;;4099572;29;20415;-60
2024/01/14 04:39:40;;;;;;;38.40;36.53;;;;;;;;;;4099249;29;20047;-60
2024/01/14 04:41:42;;;;;;;40.03;37.73;;;;;;;;;;4099334;29;20098;-61
2024/01/14 04:43:44;;;;;;;40.25;38.25;;;;;;;;;;4099229;29;20322;-61
2024/01/14 04:45:45;;;;;;;36.90;35.07;;;;;;;;;;4099328;29;20043;-60
2024/01/14 04:47:47;;;;;;;38.95;37.25;;;;;;;;;;4099210;29;20083;-60
2024/01/14 04:49:48;;;;;;;36.83;35.03;;;;;;;;;;4099123;29;20103;-58
2024/01/14 04:51:50;;;;;;;39.63;37.63;;;;;;;;;;4099317;29;20130;-61
2024/01/14 04:53:52;;;;;;;42.40;40.30;;;;;;;;;;4099108;29;20719;-60
2024/01/14 04:55:53;;;;;;;34.37;32.63;;;;;;;;;;4099244;29;20054;-60
2024/01/14 04:57:55;;;;;;;35.88;34.10;;;;;;;;;;4099400;29;20118;-60
2024/01/14 04:59:56;;;;;;;35.08;33.38;;;;;;;;;;4099038;29;20044;-59
2024/01/14 05:01:58;;;;;;;35.10;33.40;;;;;;;;;;4098916;29;20039;-59
2024/01/14 05:04:00;;;;;;;37.03;35.03;;;;;;;;;;4113587;28;20061;-60
2024/01/14 05:06:02;;;;;;;38.75;36.28;;;;;;;;;;4097810;29;20055;-59
2024/01/14 05:08:04;;;;;;;39.08;37.00;;;;;;;;;;4113193;28;20418;-60
2024/01/14 05:10:07;;;;;;;37.63;35.73;;;;;;;;;;4099080;29;20094;-60
2024/01/14 05:12:08;;;;;;;35.08;33.25;;;;;;;;;;4099296;29;20043;-60
2024/01/14 05:14:10;;;;;;;34.30;32.72;;;;;;;;;;4099165;29;20043;-60
2024/01/14 05:16:12;;;;;;;36.03;34.30;;;;;;;;;;4099053;29;20043;-60
2024/01/14 05:18:13;;;;;;;35.03;33.28;;;;;;;;;;4098632;28;20444;-60
2024/01/14 05:20:15;;;;;;;38.70;36.83;;;;;;;;;;4098889;29;20464;-58
2024/01/14 05:22:17;;;;;;;42.03;39.72;;;;;;;;;;4098984;29;20323;-60
2024/01/14 05:24:19;;;;;;;38.47;36.53;;;;;;;;;;4099027;29;20136;-61
2024/01/14 05:26:20;;;;;;;38.67;36.78;;;;;;;;;;4098704;29;20298;-60
2024/01/14 05:28:22;;;;;;;40.88;38.67;;;;;;;;;;4098997;29;20126;-60
2024/01/14 05:30:24;;;;;;;39.75;37.72;;;;;;;;;;4098902;29;20043;-60
2024/01/14 05:32:25;;;;;;;36.13;34.43;;;;;;;;;;4099115;29;20415;-57
2024/01/14 05:34:27;;;;;;;38.35;36.40;;;;;;;;;;4098837;29;20575;-57
2024/01/14 05:36:28;;;;;;;38.22;36.28;;;;;;;;;;4098872;29;20083;-56
2024/01/14 05:38:30;;;;;;;40.07;37.73;;;;;;;;;;4098885;29;20454;-57
2024/01/14 05:40:32;;;;;;;40.13;38.00;;;;;;;;;;4098782;29;20374;-56
2024/01/14 05:42:40;;;;;;;38.67;36.70;;;;;;;;;;4098944;28;20330;-57
2024/01/14 05:44:42;;;;;;;38.03;36.13;;;;;;;;;;4098904;28;20471;-57
2024/01/14 05:46:44;;;;;;;40.80;38.87;;;;;;;;;;4101884;29;20495;-56
2024/01/14 05:48:45;;;;;;;37.20;35.50;;;;;;;;;;4101810;29;20133;-56
2024/01/14 05:50:47;;;;;;;38.15;36.45;;;;;;;;;;4101916;29;20051;-57
2024/01/14 05:52:49;;;;;;;40.40;38.28;;;;;;;;;;4101446;29;20047;-57
2024/01/14 05:54:50;;;;;;;40.90;38.83;;;;;;;;;;4101407;29;20131;-57
2024/01/14 05:56:52;;;;;;;38.53;36.63;;;;;;;;;;4101541;29;20047;-56
2024/01/14 05:58:54;;;;;;;38.28;36.40;;;;;;;;;;4101376;29;20031;-57
2024/01/14 06:00:56;;;;;;;35.22;33.63;;;;;;;;;;4101329;29;20550;-57
2024/01/14 06:02:57;;;;;;;35.67;33.97;;;;;;;;;;4112610;28;20046;-56
2024/01/14 06:04:59;;;;;;;36.33;34.53;;;;;;;;;;4117225;28;20058;-57
2024/01/14 06:07:01;;;;;;;41.03;38.97;;;;;;;;;;4117556;28;20039;-57
2024/01/14 06:09:03;;;;;;;37.42;35.72;;;;;;;;;;4108760;28;20047;-57
2024/01/14 06:11:05;;;;;;;38.13;36.40;;;;;;;;;;4101718;29;20456;-56
2024/01/14 06:13:06;;;;;;;36.67;34.80;;;;;;;;;;4101687;29;20058;-56
2024/01/14 06:15:08;;;;;;;43.75;41.33;;;;;;;;;;4101355;29;20448;-57
2024/01/14 06:17:10;;;;;;;36.28;34.55;;;;;;;;;;4101277;29;20130;-57
2024/01/14 06:19:12;;;;;;;37.60;35.97;;;;;;;;;;4101393;29;20452;-57
2024/01/14 06:21:14;;;;;;;36.30;34.57;;;;;;;;;;4101544;29;20063;-57
2024/01/14 06:23:16;;;;;;;37.42;35.78;;;;;;;;;;4101243;29;20374;-57
2024/01/14 06:25:18;;;;;;;42.90;40.50;;;;;;;;;;4101102;29;20558;-57
2024/01/14 06:27:19;;;;;;;40.30;38.13;;;;;;;;;;4100154;29;20102;-57
2024/01/14 06:29:21;;;;;;;35.92;34.13;;;;;;;;;;4094877;28;20047;-57
2024/01/14 06:31:22;;;;;;;38.25;36.17;;;;;;;;;;4110512;28;20110;-58
2024/01/14 06:33:24;;;;;;;38.45;36.80;;;;;;;;;;4101456;28;20443;-58
2024/01/14 06:35:26;;;;;;;39.53;37.67;;;;;;;;;;4105376;28;20062;-58
2024/01/14 06:37:27;;;;;;;37.88;36.28;;;;;;;;;;4100903;29;20525;-58
2024/01/14 06:39:29;;;;;;;37.90;36.35;;;;;;;;;;4100995;29;20451;-58
2024/01/14 06:41:31;;;;;;;36.38;34.67;;;;;;;;;;4100640;29;20087;-58
2024/01/14 06:43:32;;;;;;;36.53;34.83;;;;;;;;;;4101254;29;20511;-62
2024/01/14 06:45:34;;;;;;;39.20;37.25;;;;;;;;;;4100974;29;20070;-61
2024/01/14 06:47:35;;;;;;;37.77;35.57;;;;;;;;;;4103655;28;20513;-61
2024/01/14 06:49:37;;;;;;;39.33;37.40;;;;;;;;;;4101336;28;20106;-61
2024/01/14 06:51:45;;;;;;;38.60;36.77;;;;;;;;;;4100389;29;20058;-61
2024/01/14 06:53:46;;;;;;;39.33;37.22;;;;;;;;;;4100751;29;20297;-60
2024/01/14 06:55:48;;;;;;;39.33;37.03;;;;;;;;;;4098938;28;20035;-61
2024/01/14 06:57:50;;;;;;;38.13;36.42;;;;;;;;;;4100115;29;20039;-61
2024/01/14 06:59:51;;;;;;;38.38;36.33;;;;;;;;;;4100614;29;20039;-61
2024/01/14 07:01:53;;;;;;;37.93;36.03;;;;;;;;;;4100218;29;20047;-61
2024/01/14 07:03:55;;;;;;;36.03;34.22;;;;;;;;;;4100103;28;20051;-61
2024/01/14 07:05:56;;;;;;;39.33;37.43;;;;;;;;;;4094372;29;20039;-62
2024/01/14 07:07:58;;;;;;;38.77;37.17;;;;;;;;;;4088115;29;20043;-61
2024/01/14 07:10:00;;;;;;;36.90;35.20;;;;;;;;;;4073482;29;20345;-61
2024/01/14 07:12:03;;;;;;;35.27;33.67;;;;;;;;;;4072973;29;20056;-61
2024/01/14 07:14:04;;;;;;;36.40;34.75;;;;;;;;;;4069023;29;20470;-61
2024/01/14 07:16:06;;;;;;;39.67;37.58;;;;;;;;;;4069134;29;20556;-62
2024/01/14 07:18:08;;;;;;;40.28;38.13;;;;;;;;;;4079636;29;20127;-62
2024/01/14 07:20:14;;;;;;;36.83;34.75;;;;;;;;;;4084625;29;20048;-62
2024/01/14 07:22:16;;;;;;;35.60;34.10;;;;;;;;;;4084510;29;20333;-61
2024/01/14 07:24:17;;;;;;;40.60;38.65;;;;;;;;;;4086638;29;20298;-61
2024/01/14 07:26:19;;;;;;;37.88;36.33;;;;;;;;;;4085616;29;20059;-62
2024/01/14 07:28:25;;;;;;;37.88;36.08;;;;;;;;;;4084035;29;20055;-61
2024/01/14 07:30:27;;;;;;;40.53;38.58;;;;;;;;;;4084840;29;20039;-61
2024/01/14 07:32:29;;;;;;;34.35;32.55;;;;;;;;;;4081573;29;20716;-61
2024/01/14 07:34:31;;;;;;;35.92;34.15;;;;;;;;;;4099111;29;20047;-61
2024/01/14 07:36:33;;;;;;;39.72;37.83;;;;;;;;;;4100050;29;20050;-61
2024/01/14 07:38:35;;;;;;;43.35;41.05;;;;;;;;;;4100129;29;20042;-61
2024/01/14 07:40:37;;;;;;;36.83;34.80;;;;;;;;;;4099981;29;20130;-61
2024/01/14 07:42:38;;;;;;;36.27;34.47;;;;;;;;;;4100092;29;20119;-61
2024/01/14 07:44:40;;;;;;;36.80;34.83;;;;;;;;;;4090797;29;20093;-61
2024/01/14 07:46:42;;;;;;;38.95;37.08;;;;;;;;;;4084056;29;20048;-61
2024/01/14 07:48:43;;;;;;;41.75;39.47;;;;;;;;;;4085665;29;20499;-61
2024/01/14 07:50:45;;;;;;;41.00;38.90;;;;;;;;;;4084101;29;20534;-61
2024/01/14 07:52:47;;;;;;;38.80;36.80;;;;;;;;;;4084186;29;20583;-61
2024/01/14 07:54:49;;;;;;;36.53;34.63;;;;;;;;;;4083866;29;20575;-61
2024/01/14 07:56:50;;;;;;;41.15;39.05;;;;;;;;;;4083963;29;20133;-61
2024/01/14 07:58:52;;;;;;;40.90;38.53;;;;;;;;;;4084220;29;20044;-61
2024/01/14 08:00:54;;;;;;;40.53;38.58;;;;;;;;;;4083629;29;20047;-61
2024/01/14 08:03:03;;;;;;;39.92;37.75;;;;;;;;;;4095410;29;20075;-58
2024/01/14 08:05:05;;;;;;;39.17;37.35;;;;;;;;;;4099624;29;20042;-58
2024/01/14 08:07:08;;;;;;;41.70;39.72;;;;;;;;;;4099555;28;20138;-57
2024/01/14 08:09:10;;;;;;;40.25;37.90;;;;;;;;;;4098029;29;20557;-58
2024/01/14 08:11:11;;;;;;;39.67;37.60;;;;;;;;;;4096364;29;20035;-58
2024/01/14 08:13:13;;;;;;;41.00;39.20;;;;;;;;;;4083845;29;20052;-58
2024/01/14 08:15:15;;;;;;;38.50;36.80;;;;;;;;;;4088038;29;20040;-58
2024/01/14 08:17:16;;;;;;;40.63;38.07;;;;;;;;;;4095267;29;20724;-59
2024/01/14 08:19:19;;;;;;;36.65;34.35;;;;;;;;;;4087445;29;20386;-58
2024/01/14 08:21:21;;;;;;;35.92;33.92;;;;;;;;;;4083704;29;20067;-58
2024/01/14 08:23:23;;;;;;;37.53;35.87;;;;;;;;;;4083604;29;20047;-58
2024/01/14 08:25:24;;;;;;;40.33;38.42;;;;;;;;;;4083303;29;20287;-57
2024/01/14 08:27:26;;;;;;;38.70;36.90;;;;;;;;;;4083498;29;20138;-57
2024/01/14 08:29:27;;;;;;;39.13;37.20;;;;;;;;;;4083679;29;20070;-58
2024/01/14 08:31:29;;;;;;;44.13;41.65;;;;;;;;;;4083529;29;20075;-58
2024/01/14 08:33:31;;;;;;;42.00;39.77;;;;;;;;;;4091244;29;20042;-58
2024/01/14 08:35:33;;;;;;;44.50;41.97;;;;;;;;;;4099238;29;20046;-58
2024/01/14 08:37:34;;;;;;;39.13;37.17;;;;;;;;;;4099516;29;20040;-57
2024/01/14 08:39:36;;;;;;;42.10;39.53;;;;;;;;;;4099199;29;20074;-58
2024/01/14 08:41:37;;;;;;;46.58;43.17;;;;;;;;;;4084279;29;20095;-58
2024/01/14 08:43:39;;;;;;;41.60;39.00;;;;;;;;;;4083490;29;20056;-58
2024/01/14 08:45:40;;;;;;;39.83;37.80;;;;;;;;;;4083255;29;20056;-59
2024/01/14 08:47:43;;;;;;;42.55;40.20;;;;;;;;;;4083335;29;20598;-58
2024/01/14 08:49:44;;;;;;;44.67;41.88;;;;;;;;;;4083531;29;20067;-57
2024/01/14 08:51:46;;;;;;;40.95;38.78;;;;;;;;;;4083689;29;20143;-57
2024/01/14 08:53:48;;;;;;;44.42;41.88;;;;;;;;;;4083591;29;20099;-58
2024/01/14 08:55:49;;;;;;;40.47;38.17;;;;;;;;;;4083173;29;20067;-57
2024/01/14 08:57:51;;;;;;;37.38;35.53;;;;;;;;;;4083357;29;20461;-58
2024/01/14 08:59:53;;;;;;;39.40;37.30;;;;;;;;;;4083369;29;20052;-57
2024/01/14 09:01:54;;;;;;;35.37;33.30;;;;;;;;;;4083077;29;20048;-58
2024/01/14 09:03:56;;;;;;;37.78;36.13;;;;;;;;;;4080659;29;20044;-58
2024/01/14 09:05:58;;;;;;;39.58;37.75;;;;;;;;;;4080918;29;20504;-58
2024/01/14 09:08:00;;;;;;;;;;;;;;;;;;4080047;29;20560;-58
2024/01/14 09:10:02;;;;;;;42.10;39.25;;;;;;;;;;4082300;29;19923;-58
2024/01/14 09:12:03;;;;;;;41.63;39.57;;;;;;;;;;4082476;29;20556;-58
2024/01/14 09:14:05;;;;;;;42.83;40.63;;;;;;;;;;4081487;29;20302;-61
2024/01/14 09:16:07;;;;;;;39.45;37.53;;;;;;;;;;4081922;29;20122;-61
2024/01/14 09:18:08;;;;;;;40.70;38.40;;;;;;;;;;4082123;29;20138;-61
2024/01/14 09:20:11;;;;;;;35.90;33.90;;;;;;;;;;4084360;29;20074;-61
2024/01/14 09:22:12;;;;;;;38.83;37.05;;;;;;;;;;4086001;29;20040;-62
2024/01/14 09:24:14;;;;;;;40.90;39.00;;;;;;;;;;4085027;29;20068;-62
2024/01/14 09:26:15;;;;;;;39.20;37.40;;;;;;;;;;4085156;29;20052;-62
2024/01/14 09:28:17;;;;;;;36.42;34.78;;;;;;;;;;4083742;29;20040;-62
2024/01/14 09:30:19;;;;;;;40.17;38.03;;;;;;;;;;4084988;29;20104;-61
2024/01/14 09:32:21;;;;;;;38.58;36.72;;;;;;;;;;4085657;29;20975;-62
2024/01/14 09:34:22;;;;;;;37.40;35.63;;;;;;;;;;4083741;29;20099;-62
2024/01/14 09:36:26;;;;;;;42.20;40.17;;;;;;;;;;4067362;29;20054;-61
2024/01/14 09:38:27;;;;;;;39.05;37.13;;;;;;;;;;4082706;29;20122;-62
2024/01/14 09:40:29;;;;;;;37.08;35.17;;;;;;;;;;4082792;29;20897;-61
2024/01/14 09:42:34;;;;;;;39.07;37.23;;;;;;;;;;4084588;29;20040;-62
2024/01/14 09:44:36;;;;;;;39.03;37.10;;;;;;;;;;4082511;29;20040;-61
2024/01/14 09:46:38;;;;;;;37.90;36.20;;;;;;;;;;4085857;29;20109;-62
2024/01/14 09:48:39;;;;;;;40.37;38.43;;;;;;;;;;4083598;29;20036;-61
2024/01/14 09:50:41;;;;;;;42.33;40.35;;;;;;;;;;4084392;29;20075;-62
2024/01/14 09:52:43;;;;;;;39.40;37.30;;;;;;;;;;4083857;29;20481;-62
2024/01/14 09:54:44;;;;;;;40.70;38.67;;;;;;;;;;4083464;29;20119;-61
2024/01/14 09:56:48;;;;;;;41.00;38.70;;;;;;;;;;4083676;29;20047;-61
2024/01/14 09:58:52;;;;;;;42.28;40.10;;;;;;;;;;4083604;29;20039;-61
2024/01/14 10:00:55;;;;;;;40.08;38.03;;;;;;;;;;4083500;29;20130;-62
2024/01/14 10:02:56;;;;;;;42.78;40.35;;;;;;;;;;4084441;29;20126;-62
2024/01/14 10:04:59;;;;;;;41.17;38.97;;;;;;;;;;4085552;28;20090;-62
2024/01/14 10:07:00;;;;;;;41.72;39.35;;;;;;;;;;4085555;29;20047;-61
2024/01/14 10:09:02;;;;;;;40.13;38.13;;;;;;;;;;4086391;29;20032;-62
2024/01/14 10:11:05;;;;;;;38.40;36.70;;;;;;;;;;4084515;29;20051;-61
2024/01/14 10:13:07;;;;;;;38.50;36.55;;;;;;;;;;4085555;29;20092;-62
2024/01/14 10:15:11;;;;;;;41.72;39.47;;;;;;;;;;4094695;29;20122;-61
2024/01/14 10:17:13;;;;;;;39.90;37.90;;;;;;;;;;4084476;29;20044;-62
2024/01/14 10:19:15;;;;;;;;;;;;;;;;;;4085195;29;20043;-62
2024/01/14 10:21:17;;;;;;;41.72;39.42;;;;;;;;;;4082442;29;19926;-61
2024/01/14 10:23:21;;;;;;;43.43;40.90;;;;;;;;;;4087034;29;20117;-62
2024/01/14 10:25:25;;;;;;;44.20;41.20;;;;;;;;;;4085580;29;20330;-61
2024/01/14 10:27:28;;;;;;;42.13;39.92;;;;;;;;;;4084088;29;20047;-61
2024/01/14 10:29:39;;;;;;;42.33;40.22;;;;;;;;;;4087439;29;20074;-62
2024/01/14 10:31:42;;;;;;;41.30;38.92;;;;;;;;;;4085290;29;20084;-62
2024/01/14 10:33:44;;;;;;;42.40;39.75;;;;;;;;;;4086414;29;20040;-60
2024/01/14 10:35:47;;;;;;;39.13;37.28;;;;;;;;;;4085153;29;20056;-62
2024/01/14 10:37:49;;;;;;;43.47;41.03;;;;;;;;;;4087937;29;20067;-62
2024/01/14 10:39:50;;;;;;;42.95;40.67;;;;;;;;;;4073047;29;20389;-61
2024/01/14 10:41:52;;;;;;;40.83;38.73;;;;;;;;;;4077052;29;20522;-62
2024/01/14 10:43:54;;;;;;;39.30;37.28;;;;;;;;;;4078884;29;21782;-61
2024/01/14 10:45:57;;;;;;;42.20;40.25;;;;;;;;;;4078218;29;20103;-62
2024/01/14 10:48:00;;;;;;;42.53;40.42;;;;;;;;;;4087139;29;20044;-62
2024/01/14 10:50:03;;;;;;;38.30;36.45;;;;;;;;;;4084463;29;20050;-62
2024/01/14 10:52:05;;;;;;;;;;;;;;;;;;4081005;29;20071;-61
2024/01/14 10:54:19;;;;;;;40.03;38.17;;;;;;;;;;4068238;29;19986;-62
2024/01/14 10:56:23;;;;;;;40.65;38.72;;;;;;;;;;4082191;29;20043;-61
2024/01/14 10:58:26;;;;;;;43.67;41.50;;;;;;;;;;4085491;29;20063;-62
2024/01/14 11:00:31;;;;;;;41.42;39.20;;;;;;;;;;4079410;29;20047;-61
2024/01/14 11:02:33;;;;;;;43.15;40.92;;;;;;;;;;4081297;29;20071;-61
2024/01/14 11:04:35;;;;;;;41.15;39.05;;;;;;;;;;4092991;28;20048;-62
2024/01/14 11:06:37;;;;;;;45.03;42.55;;;;;;;;;;4093698;29;20132;-62
2024/01/14 11:08:40;;;;;;;45.42;42.55;;;;;;;;;;4097993;29;20043;-61
2024/01/14 11:10:41;;;;;;;44.50;41.67;;;;;;;;;;4088015;29;20476;-62
2024/01/14 11:13:01;;;;;;;44.70;42.23;;;;;;;;;;4097212;29;20722;-62
2024/01/14 11:15:10;;;;;;;41.45;39.10;;;;;;;;;;4085993;29;20294;-62
2024/01/14 11:17:12;;;;;;;37.38;35.40;;;;;;;;;;4096937;28;20043;-62
2024/01/14 11:19:15;;;;;;;41.88;39.65;;;;;;;;;;4099386;29;20125;-62
2024/01/14 11:21:49;;;;;;;40.75;38.45;;;;;;;;;;4098143;28;20533;-61
2024/01/14 11:24:10;;;;;;;40.85;38.88;;;;;;;;;;4095019;29;20043;-62
2024/01/14 11:26:12;;;;;;;41.45;39.20;;;;;;;;;;4094228;29;20058;-62
2024/01/14 11:28:14;;;;;;;41.83;39.47;;;;;;;;;;4091776;28;20098;-62
2024/01/14 11:30:18;;;;;;;40.13;38.22;;;;;;;;;;4097006;29;20126;-62
2024/01/14 11:32:20;;;;;;;41.85;39.33;;;;;;;;;;4095838;29;20563;-62
2024/01/14 11:34:41;;;;;;;49.17;45.30;;;;;;;;;;4086624;29;20419;-62
2024/01/14 11:36:55;;;;;;;44.00;40.72;;;;;;;;;;4092589;29;20396;-62
2024/01/14 11:38:57;;;;;;;44.00;41.25;;;;;;;;;;4095850;29;20043;-62
2024/01/14 11:40:59;;;;;;;46.23;42.87;;;;;;;;;;4084157;29;20471;-62
2024/01/14 11:43:03;;;;;;;43.88;41.35;;;;;;;;;;4083881;29;20382;-59
2024/01/14 11:45:32;;;;;;;44.83;41.53;;;;;;;;;;4084253;29;20073;-59
2024/01/14 11:47:37;;;;;;;44.03;41.65;;;;;;;;;;4085474;29;20036;-58
2024/01/14 11:49:39;;;;;;;37.47;35.25;;;;;;;;;;4094148;29;20050;-58
2024/01/14 11:51:50;;;;;;;38.50;36.80;;;;;;;;;;4084270;29;20082;-58
2024/01/14 11:53:52;;;;;;;37.00;35.17;;;;;;;;;;4087772;29;20238;-58